createdAt,value
2019-02-23T00:04:50.720Z,25.80
2019-02-23T00:10:57.319Z,26.37
2019-02-23T00:17:03.086Z,27.20
2019-02-23T00:23:08.942Z,25.43
2019-02-23T00:29:14.965Z,27.87
2019-02-23T00:35:21.329Z,23.43
2019-02-23T00:41:27.080Z,23.90
2019-02-23T00:47:33.138Z,25.13
2019-02-23T00:53:38.969Z,26.17
2019-02-23T00:59:44.726Z,25.03
2019-02-23T01:05:50.640Z,24.53
2019-02-23T01:11:56.552Z,25.40
2019-02-23T01:18:02.565Z,24.40
2019-02-23T01:24:08.509Z,25.03
2019-02-23T01:30:15.068Z,25.13
2019-02-23T01:36:20.886Z,25.53
2019-02-23T01:42:27.041Z,24.93
2019-02-23T01:48:32.935Z,25.87
2019-02-23T01:54:38.924Z,25.13
2019-02-23T02:00:44.677Z,25.30
2019-02-23T02:06:50.602Z,25.20
2019-02-23T02:12:56.565Z,25.93
2019-02-23T02:19:02.694Z,25.57
2019-02-23T02:25:09.310Z,24.93
2019-02-23T02:31:15.345Z,24.97
2019-02-23T02:37:21.621Z,24.33
2019-02-23T02:43:27.516Z,23.37
2019-02-23T02:49:33.630Z,27.77
2019-02-23T02:55:39.531Z,25.43
2019-02-23T03:01:45.695Z,25.63
2019-02-23T03:07:51.505Z,23.80
2019-02-23T03:13:57.284Z,21.70
2019-02-23T03:20:03.256Z,13.57
2019-02-23T03:26:09.405Z,13.63
2019-02-23T03:32:15.450Z,13.13
2019-02-23T03:38:21.332Z,14.10
2019-02-23T03:44:27.213Z,13.17
2019-02-23T03:50:32.969Z,15.13
2019-02-23T03:56:39.258Z,16.23
2019-02-23T04:02:45.082Z,18.20
2019-02-23T04:08:50.979Z,16.07
2019-02-23T04:14:56.872Z,16.13
2019-02-23T04:21:02.797Z,16.80
2019-02-23T04:27:09.062Z,22.20
2019-02-23T04:33:14.805Z,23.30
2019-02-23T04:39:20.543Z,18.63
2019-02-23T04:45:26.378Z,21.50
2019-02-23T04:51:32.244Z,25.03
2019-02-23T04:57:38.064Z,24.13
2019-02-23T05:03:46.283Z,23.53
2019-02-23T05:09:52.050Z,20.53
2019-02-23T05:15:57.822Z,19.50
2019-02-23T05:22:03.681Z,20.30
2019-02-23T05:28:09.867Z,18.63
2019-02-23T05:34:15.901Z,21.37
2019-02-23T05:40:21.692Z,32.13
2019-02-23T05:46:27.884Z,15.60
2019-02-23T05:52:34.107Z,14.53
2019-02-23T05:58:40.121Z,16.27
2019-02-23T06:04:46.692Z,14.50
2019-02-23T06:10:53.284Z,14.40
2019-02-23T06:16:59.112Z,14.20
2019-02-23T06:23:05.613Z,16.57
2019-02-23T06:29:11.592Z,18.50
2019-02-23T06:35:18.057Z,15.40
2019-02-23T06:41:24.412Z,14.50
2019-02-23T06:47:32.074Z,20.07
2019-02-23T06:53:38.175Z,18.63
2019-02-23T06:59:44.369Z,16.30
2019-02-23T07:05:50.938Z,16.43
2019-02-23T07:11:56.829Z,16.07
2019-02-23T07:18:03.179Z,16.27
2019-02-23T07:24:09.722Z,18.70
2019-02-23T07:30:15.746Z,17.60
2019-02-23T07:36:21.646Z,17.13
2019-02-23T07:42:27.862Z,18.03
2019-02-23T07:48:34.060Z,19.43
2019-02-23T07:54:39.927Z,19.47
2019-02-23T08:00:45.726Z,20.20
2019-02-23T08:06:51.919Z,18.13
2019-02-23T08:12:58.451Z,15.20
2019-02-23T08:19:04.699Z,16.23
2019-02-23T08:25:11.418Z,16.57
2019-02-23T08:31:22.011Z,18.50
2019-02-23T08:37:28.219Z,18.17
2019-02-23T08:43:34.605Z,18.77
2019-02-23T08:49:40.466Z,17.40
2019-02-23T08:55:47.151Z,15.97
2019-02-23T09:01:53.342Z,16.00
2019-02-23T09:07:59.355Z,15.17
2019-02-23T09:14:05.167Z,15.70
2019-02-23T09:20:12.146Z,15.13
2019-02-23T09:26:18.381Z,13.83
2019-02-23T09:32:24.468Z,14.27
2019-02-23T09:38:30.567Z,13.70
2019-02-23T09:44:36.753Z,13.27
2019-02-23T09:50:42.527Z,13.80
2019-02-23T09:56:48.413Z,13.37
2019-02-23T10:02:54.372Z,15.70
2019-02-23T10:09:00.152Z,13.37
2019-02-23T10:15:06.769Z,13.63
2019-02-23T10:21:12.637Z,13.40
2019-02-23T10:27:18.831Z,11.33
2019-02-23T10:33:24.770Z,13.10
2019-02-23T10:39:30.915Z,11.83
2019-02-23T10:45:36.955Z,11.03
2019-02-23T10:51:42.838Z,12.87
2019-02-23T10:57:48.834Z,11.70
2019-02-23T11:03:54.603Z,12.47
2019-02-23T11:10:00.449Z,12.23
2019-02-23T11:16:06.368Z,11.27
2019-02-23T11:22:12.542Z,9.60
2019-02-23T11:28:18.627Z,8.80
2019-02-23T11:34:24.853Z,9.17
2019-02-23T11:40:30.878Z,8.17
2019-02-23T11:46:36.777Z,6.90
2019-02-23T11:52:43.751Z,6.87
2019-02-23T11:58:49.710Z,5.90
2019-02-23T12:04:55.493Z,5.40
2019-02-23T12:11:01.282Z,5.30
2019-02-23T12:17:07.073Z,5.23
2019-02-23T12:23:12.813Z,5.43
2019-02-23T12:29:18.705Z,6.27
2019-02-23T12:35:24.523Z,5.57
2019-02-23T12:41:30.399Z,5.57
2019-02-23T12:47:36.534Z,5.60
2019-02-23T12:53:42.384Z,5.43
2019-02-23T12:59:48.185Z,5.80
2019-02-23T13:05:53.983Z,5.90
2019-02-23T13:12:29.781Z,6.27
2019-02-23T13:19:30.957Z,5.33
2019-02-23T13:25:56.085Z,5.17
2019-02-23T13:32:49.554Z,5.23
2019-02-23T13:39:29.791Z,5.40
2019-02-23T13:46:12.535Z,6.70
2019-02-23T13:53:27.195Z,5.80
2019-02-23T14:00:16.404Z,5.93
2019-02-23T14:07:10.323Z,5.90
2019-02-23T14:14:17.978Z,5.30
2019-02-23T14:21:18.365Z,5.80
2019-02-23T14:28:27.658Z,5.67
2019-02-23T14:35:49.961Z,5.27
2019-02-23T14:42:32.553Z,5.50
2019-02-23T14:49:08.266Z,4.63
2019-02-23T14:56:08.494Z,4.73
2019-02-23T15:02:58.958Z,5.03
2019-02-23T15:09:49.379Z,6.80
2019-02-23T15:17:25.120Z,5.40
2019-02-23T15:24:05.625Z,5.43
2019-02-23T15:31:00.422Z,5.20
2019-02-23T15:38:16.406Z,5.23
2019-02-23T15:45:20.827Z,5.57
2019-02-23T15:51:26.720Z,5.63
2019-02-23T15:57:32.576Z,5.33
2019-02-23T16:03:38.368Z,5.27
2019-02-23T16:09:44.369Z,6.13
2019-02-23T16:15:50.258Z,5.43
2019-02-23T16:21:56.099Z,5.43
2019-02-23T16:28:02.163Z,5.77
2019-02-23T16:34:08.082Z,4.70
2019-02-23T16:40:14.327Z,5.07
2019-02-23T16:46:20.078Z,5.47
2019-02-23T16:52:26.279Z,4.77
2019-02-23T16:58:32.204Z,5.80
2019-02-23T17:04:38.352Z,5.97
2019-02-23T17:10:44.620Z,6.07
2019-02-23T17:16:50.379Z,6.47
2019-02-23T17:22:56.202Z,6.03
2019-02-23T17:29:02.084Z,7.67
2019-02-23T17:35:08.578Z,6.60
2019-02-23T17:41:14.479Z,6.50
2019-02-23T17:47:20.475Z,8.33
2019-02-23T17:53:26.926Z,8.50
2019-02-23T17:59:32.770Z,8.17
2019-02-23T18:05:38.728Z,6.40
2019-02-23T18:11:44.642Z,5.90
2019-02-23T18:17:50.740Z,6.60
2019-02-23T18:23:56.700Z,6.73
2019-02-23T18:30:10.690Z,5.87
2019-02-23T18:36:10.183Z,6.30
2019-02-23T18:42:16.345Z,5.30
2019-02-23T18:48:22.744Z,6.03
2019-02-23T18:54:28.650Z,6.37
2019-02-23T19:00:36.514Z,7.33
2019-02-23T19:06:42.488Z,7.13
2019-02-23T19:12:48.381Z,7.73
2019-02-23T19:18:55.054Z,8.43
2019-02-23T19:25:01.344Z,7.83
2019-02-23T19:31:08.163Z,7.77
2019-02-23T19:37:14.280Z,8.30
2019-02-23T19:43:20.029Z,7.90
2019-02-23T19:49:25.920Z,8.27
2019-02-23T19:55:32.676Z,9.47
2019-02-23T20:01:39.105Z,9.70
2019-02-23T20:07:45.178Z,10.33
2019-02-23T20:13:51.043Z,9.20
2019-02-23T20:19:56.944Z,8.77
2019-02-23T20:26:03.968Z,9.17
2019-02-23T20:32:09.799Z,9.37
2019-02-23T20:38:15.602Z,9.03
2019-02-23T20:44:21.415Z,8.67
2019-02-23T20:50:27.297Z,8.87
2019-02-23T20:56:33.086Z,9.13
2019-02-23T21:02:39.114Z,8.53
2019-02-23T21:08:45.015Z,8.90
2019-02-23T21:14:51.062Z,8.30
2019-02-23T21:20:57.071Z,8.27
2019-02-23T21:27:03.292Z,9.40
2019-02-23T21:33:09.209Z,8.33
2019-02-23T21:39:15.043Z,7.57
2019-02-23T21:45:20.845Z,8.03
2019-02-23T21:51:26.675Z,8.63
2019-02-23T21:57:32.510Z,8.00
2019-02-23T22:03:38.636Z,7.73
2019-02-23T22:09:44.473Z,7.57
2019-02-23T22:15:50.542Z,8.00
2019-02-23T22:21:56.465Z,8.80
2019-02-23T22:28:02.634Z,8.57
2019-02-23T22:34:08.853Z,8.30
2019-02-23T22:40:14.705Z,8.13
2019-02-23T22:46:20.745Z,8.10
2019-02-23T22:52:26.693Z,8.23
2019-02-23T22:58:32.486Z,7.83
2019-02-23T23:04:38.528Z,7.90
2019-02-23T23:10:44.781Z,8.00
2019-02-23T23:16:50.745Z,7.70
2019-02-23T23:22:56.691Z,7.67
2019-02-23T23:29:02.865Z,7.40
2019-02-23T23:35:08.894Z,6.80
2019-02-23T23:41:14.957Z,7.17
2019-02-23T23:47:21.000Z,7.10
2019-02-23T23:53:26.732Z,7.77
2019-02-23T23:59:32.810Z,7.37
